sensor_id;sensor_type;location;lat;lon;timestamp;temperature;humidity
31687;DHT22;18285;51.330;4.946;2023-12-22T00:04:47;27.70;30.60
31687;DHT22;18285;51.330;4.946;2023-12-22T00:28:58;27.80;30.00
31687;DHT22;18285;51.330;4.946;2023-12-22T00:53:08;27.90;29.90
31687;DHT22;18285;51.330;4.946;2023-12-22T01:17:20;27.80;29.90
31687;DHT22;18285;51.330;4.946;2023-12-22T01:41:31;27.80;29.90
31687;DHT22;18285;51.330;4.946;2023-12-22T02:05:42;27.70;29.80
31687;DHT22;18285;51.330;4.946;2023-12-22T02:30:08;27.50;29.90
31687;DHT22;18285;51.330;4.946;2023-12-22T02:54:19;27.50;29.80
31687;DHT22;18285;51.330;4.946;2023-12-22T03:18:30;27.30;29.80
31687;DHT22;18285;51.330;4.946;2023-12-22T03:42:41;27.10;29.90
31687;DHT22;18285;51.330;4.946;2023-12-22T04:06:51;26.90;30.10
31687;DHT22;18285;51.330;4.946;2023-12-22T04:31:02;26.70;30.50
31687;DHT22;18285;51.330;4.946;2023-12-22T04:55:13;26.70;30.20
31687;DHT22;18285;51.330;4.946;2023-12-22T05:19:24;26.40;30.90
31687;DHT22;18285;51.330;4.946;2023-12-22T05:43:34;26.30;30.50
31687;DHT22;18285;51.330;4.946;2023-12-22T06:07:45;26.10;31.00
31687;DHT22;18285;51.330;4.946;2023-12-22T06:31:56;26.10;30.60
31687;DHT22;18285;51.330;4.946;2023-12-22T06:56:18;25.80;31.30
31687;DHT22;18285;51.330;4.946;2023-12-22T07:20:29;25.70;31.90
31687;DHT22;18285;51.330;4.946;2023-12-22T07:44:40;25.60;31.90
31687;DHT22;18285;51.330;4.946;2023-12-22T08:08:51;25.60;31.90
31687;DHT22;18285;51.330;4.946;2023-12-22T08:33:02;25.40;32.60
31687;DHT22;18285;51.330;4.946;2023-12-22T08:57:13;25.20;33.20
31687;DHT22;18285;51.330;4.946;2023-12-22T09:21:24;25.20;33.90
31687;DHT22;18285;51.330;4.946;2023-12-22T09:45:35;25.10;34.30
31687;DHT22;18285;51.330;4.946;2023-12-22T10:09:47;24.90;34.50
31687;DHT22;18285;51.330;4.946;2023-12-22T10:33:58;24.90;35.00
31687;DHT22;18285;51.330;4.946;2023-12-22T10:58:09;24.90;35.40
31687;DHT22;18285;51.330;4.946;2023-12-22T11:22:21;24.80;35.40
31687;DHT22;18285;51.330;4.946;2023-12-22T11:46:32;24.80;35.00
31687;DHT22;18285;51.330;4.946;2023-12-22T12:10:51;24.60;35.00
31687;DHT22;18285;51.330;4.946;2023-12-22T12:35:03;24.70;34.80
31687;DHT22;18285;51.330;4.946;2023-12-22T12:59:16;24.70;35.40
31687;DHT22;18285;51.330;4.946;2023-12-22T13:23:28;24.70;34.60
31687;DHT22;18285;51.330;4.946;2023-12-22T13:47:42;24.60;35.20
31687;DHT22;18285;51.330;4.946;2023-12-22T14:11:55;24.60;34.90
31687;DHT22;18285;51.330;4.946;2023-12-22T14:36:06;24.50;35.50
31687;DHT22;18285;51.330;4.946;2023-12-22T15:00:17;24.50;35.10
31687;DHT22;18285;51.330;4.946;2023-12-22T15:24:29;24.60;35.20
31687;DHT22;18285;51.330;4.946;2023-12-22T15:48:40;24.40;34.90
31687;DHT22;18285;51.330;4.946;2023-12-22T16:12:52;24.50;35.20
31687;DHT22;18285;51.330;4.946;2023-12-22T16:37:02;24.30;35.40
31687;DHT22;18285;51.330;4.946;2023-12-22T17:01:17;24.00;37.30
31687;DHT22;18285;51.330;4.946;2023-12-22T17:25:27;23.90;36.80
31687;DHT22;18285;51.330;4.946;2023-12-22T17:49:38;24.00;37.00
31687;DHT22;18285;51.330;4.946;2023-12-22T18:13:49;24.00;36.70
31687;DHT22;18285;51.330;4.946;2023-12-22T18:38:03;23.90;37.30
31687;DHT22;18285;51.330;4.946;2023-12-22T19:02:14;23.80;38.30
31687;DHT22;18285;51.330;4.946;2023-12-22T19:26:25;23.80;39.50
31687;DHT22;18285;51.330;4.946;2023-12-22T19:50:35;24.30;40.30
31687;DHT22;18285;51.330;4.946;2023-12-22T20:14:46;24.80;40.60
31687;DHT22;18285;51.330;4.946;2023-12-22T20:38:57;25.00;41.90
31687;DHT22;18285;51.330;4.946;2023-12-22T21:03:07;25.40;40.20
31687;DHT22;18285;51.330;4.946;2023-12-22T21:27:18;25.70;39.90
31687;DHT22;18285;51.330;4.946;2023-12-22T21:51:29;25.90;39.30
31687;DHT22;18285;51.330;4.946;2023-12-22T22:15:39;26.10;38.10
31687;DHT22;18285;51.330;4.946;2023-12-22T23:04:02;26.70;37.30
31687;DHT22;18285;51.330;4.946;2023-12-22T23:28:13;27.00;37.10
31687;DHT22;18285;51.330;4.946;2023-12-22T23:52:24;27.40;36.80
